createdAt,value
2023-03-13T00:24:56.799Z,90.00
2023-03-13T00:55:23.755Z,88.00
2023-03-13T01:25:42.274Z,90.20
2023-03-13T02:31:25.720Z,89.70
2023-03-13T03:02:07.719Z,91.20
2023-03-13T03:32:35.876Z,92.30
2023-03-13T03:57:49.371Z,91.50
2023-03-13T04:18:06.110Z,92.10
2023-03-13T04:48:30.656Z,99.90
2023-03-13T05:27:53.826Z,99.90
2023-03-13T07:40:36.225Z,99.90
2023-03-13T08:06:06.952Z,99.90
2023-03-13T08:35:56.720Z,99.90
2023-03-13T08:56:48.526Z,99.90
2023-03-13T09:16:48.506Z,97.10
2023-03-13T09:37:27.961Z,93.60
2023-03-13T10:07:48.682Z,90.70
2023-03-13T10:47:58.254Z,90.50
2023-03-13T11:13:41.184Z,90.60
2023-03-13T11:59:33.232Z,85.20
2023-03-13T12:19:47.956Z,83.30
2023-03-13T12:59:46.292Z,89.60
2023-03-13T13:25:41.681Z,99.90
2023-03-13T13:55:58.585Z,99.90
2023-03-13T14:21:14.302Z,99.90
2023-03-13T14:46:45.968Z,99.90
2023-03-13T15:22:25.481Z,99.90
2023-03-13T16:02:19.722Z,99.90
2023-03-13T16:28:07.597Z,99.90
2023-03-13T16:58:49.641Z,99.90
2023-03-13T17:28:49.633Z,99.90
2023-03-13T17:49:21.520Z,99.90
2023-03-13T18:39:55.927Z,96.40
2023-03-13T18:59:51.795Z,93.70
2023-03-13T19:30:55.379Z,93.20
2023-03-13T20:01:16.740Z,92.10
2023-03-13T20:46:21.987Z,92.40
2023-03-13T21:12:27.081Z,91.90
2023-03-13T21:47:51.806Z,91.10
2023-03-13T22:18:04.185Z,90.90
2023-03-13T22:58:52.888Z,89.00
2023-03-13T23:29:16.578Z,88.70
2023-03-13T23:49:35.521Z,90.00
